This is the latest recevied weather packets stored in our database for station/object DJ3AN. If no packets are shown the sender has not sent any weather packets the latest 1 day(s).
| Time | Temp. | Humidity | Pressure | Rain* | Wind** | Luminosity | Snow |
|---|---|---|---|---|---|---|---|
| 1836274680 | 15.56° C | 91% | 1013.8 hPa | 0 mm | 0.45 m/s, 149° | - | - |
| 1836274530 | 15.56° C | 90% | 1013.8 hPa | 0 mm | 0.89 m/s, 137° | - | - |
| 1836274380 | 15.56° C | 91% | 1013.7 hPa | 0 mm | 1.34 m/s, 121° | - | - |
| 1836274231 | 15.56° C | 91% | 1013.8 hPa | 0 mm | 0.45 m/s, 144° | - | - |
| 1836274080 | 15.56° C | 91% | 1013.8 hPa | 0 mm | 0.45 m/s, 114° | - | - |
| 1778024705 | 11.67° C | 84% | 1008.6 hPa | 0 mm | 0.89 m/s, 46° | - | - |
| 1778024405 | 11.67° C | 84% | 1008.7 hPa | 0 mm | 0 m/s | - | - |
| 1778024105 | 11.67° C | 84% | 1008.7 hPa | 0 mm | 0.89 m/s, 0° | - | - |
| 1778023805 | 11.67° C | 84% | 1008.7 hPa | 0 mm | 0.45 m/s, 2° | - | - |
| 1778023505 | 11.67° C | 84% | 1008.7 hPa | 0 mm | 1.34 m/s, 23° | - | - |
| 1778023205 | 11.67° C | 84% | 1008.7 hPa | 0 mm | 0.89 m/s, 17° | - | - |
| 1778022905 | 11.67° C | 84% | 1008.7 hPa | 0 mm | 0.45 m/s, 13° | - | - |
| 1778022605 | 12.22° C | 84% | 1008.7 hPa | 0 mm | 0.45 m/s, 21° | - | - |
| 1778022305 | 12.22° C | 84% | 1008.7 hPa | 0 mm | 0.45 m/s, 27° | - | - |
| 1778022005 | 12.22° C | 84% | 1008.8 hPa | 0 mm | 0.45 m/s, 30° | - | - |
| 1778021705 | 12.22° C | 84% | 1008.7 hPa | 0 mm | 0.89 m/s, 37° | - | - |
| 1778021406 | 12.22° C | 83% | 1008.8 hPa | 0 mm | 0.89 m/s, 25° | - | - |
| 1778021105 | 12.22° C | 83% | 1008.8 hPa | 0 mm | 0.45 m/s, 23° | - | - |
| 1778020805 | 12.22° C | 83% | 1008.9 hPa | 0 mm | 0 m/s | - | - |
| 1778020505 | 12.22° C | 83% | 1008.9 hPa | 0 mm | 1.34 m/s, 38° | - | - |
| 1778020216 | 12.22° C | 83% | 1008.8 hPa | 0 mm | 0 m/s | - | - |
| 1778019906 | 12.22° C | 83% | 1008.8 hPa | 0 mm | 1.34 m/s, 18° | - | - |
| 1778019605 | 12.22° C | 83% | 1008.9 hPa | 0 mm | 0.89 m/s, 28° | - | - |
| 1778019306 | 12.22° C | 84% | 1008.9 hPa | 0 mm | 0.89 m/s, 27° | - | - |
| 1778019007 | 12.22° C | 84% | 1008.9 hPa | 0 mm | 0 m/s | - | - |
* Rain latest hour (hover to see other rain measurements)
** Current wind speed in m/s (hover to see current wind gust speed)